createdAt,value
2023-02-03T00:01:02.160Z,7.77
2023-02-03T00:03:30.219Z,5.77
2023-02-03T00:05:58.191Z,6.33
2023-02-03T00:08:26.719Z,4.50
2023-02-03T00:10:55.580Z,3.60
2023-02-03T00:13:24.149Z,6.67
2023-02-03T00:15:52.934Z,5.23
2023-02-03T00:18:21.639Z,6.33
2023-02-03T00:20:50.116Z,5.70
2023-02-03T00:23:19.009Z,4.83
2023-02-03T00:25:47.596Z,5.30
2023-02-03T00:28:16.305Z,6.73
2023-02-03T00:30:45.266Z,3.87
2023-02-03T00:33:13.329Z,4.73
2023-02-03T00:35:41.871Z,6.83
2023-02-03T00:38:10.505Z,6.67
2023-02-03T00:40:38.895Z,5.47
2023-02-03T00:43:06.951Z,6.90
2023-02-03T00:45:35.381Z,11.37
2023-02-03T00:48:03.242Z,5.37
2023-02-03T00:50:31.193Z,4.50
2023-02-03T00:52:59.849Z,6.40
2023-02-03T00:55:27.576Z,7.37
2023-02-03T00:57:55.476Z,5.70
2023-02-03T01:00:24.813Z,5.90
2023-02-03T01:02:52.947Z,6.70
2023-02-03T01:05:21.233Z,5.97
2023-02-03T01:07:49.232Z,5.40
2023-02-03T01:10:17.327Z,5.87
2023-02-03T01:12:45.853Z,5.67
2023-02-03T01:15:14.420Z,7.00
2023-02-03T01:17:43.131Z,4.53
2023-02-03T01:20:13.792Z,5.33
2023-02-03T01:22:41.644Z,4.97
2023-02-03T01:25:10.278Z,5.17
2023-02-03T01:27:38.836Z,4.43
2023-02-03T01:30:06.768Z,4.83
2023-02-03T01:32:34.758Z,5.67
2023-02-03T01:35:03.063Z,4.43
2023-02-03T01:37:31.600Z,5.47
2023-02-03T01:40:00.157Z,6.10
2023-02-03T01:42:29.987Z,3.87
2023-02-03T01:44:59.308Z,3.77
2023-02-03T01:47:29.625Z,3.17
2023-02-03T01:49:59.847Z,5.07
2023-02-03T01:52:29.455Z,4.07
2023-02-03T01:54:58.202Z,3.23
2023-02-03T01:57:28.354Z,3.07
2023-02-03T01:59:59.091Z,2.77
2023-02-03T02:02:27.349Z,2.17
2023-02-03T02:04:59.538Z,2.77
2023-02-03T02:07:28.416Z,3.10
2023-02-03T02:09:56.811Z,3.90
2023-02-03T02:12:24.773Z,3.00
2023-02-03T02:14:53.104Z,3.80
2023-02-03T02:17:39.315Z,2.90
2023-02-03T02:20:09.533Z,2.63
2023-02-03T02:22:39.388Z,3.30
2023-02-03T02:27:52.516Z,2.47
2023-02-03T02:30:28.729Z,6.30
2023-02-03T02:33:10.577Z,3.30
2023-02-03T02:35:52.909Z,4.60
2023-02-03T02:38:28.795Z,3.03
2023-02-03T02:41:10.134Z,2.90
2023-02-03T02:43:42.371Z,4.10
2023-02-03T02:46:12.766Z,3.30
2023-02-03T02:48:45.241Z,3.27
2023-02-03T02:51:15.615Z,3.83
2023-02-03T02:53:51.048Z,3.80
2023-02-03T02:56:20.084Z,3.77
2023-02-03T02:58:50.085Z,3.60
2023-02-03T03:01:19.704Z,3.63
2023-02-03T03:03:48.593Z,3.67
2023-02-03T03:06:21.991Z,4.77
2023-02-03T03:08:52.071Z,3.70
2023-02-03T03:11:20.548Z,3.67
2023-02-03T03:13:53.523Z,4.37
2023-02-03T03:16:23.521Z,4.67
2023-02-03T03:18:53.096Z,3.33
2023-02-03T03:21:23.186Z,5.27
2023-02-03T03:23:52.627Z,3.27
2023-02-03T03:26:27.212Z,3.20
2023-02-03T03:29:00.403Z,3.70
2023-02-03T03:31:28.464Z,3.10
2023-02-03T03:33:56.701Z,4.20
2023-02-03T03:36:35.335Z,2.53
2023-02-03T03:39:04.723Z,3.07
2023-02-03T03:41:37.801Z,3.03
2023-02-03T03:44:07.497Z,3.17
2023-02-03T03:46:37.526Z,3.43
2023-02-03T03:49:07.376Z,6.97
2023-02-03T03:51:37.565Z,3.43
2023-02-03T03:54:07.573Z,3.60
2023-02-03T03:56:38.139Z,2.90
2023-02-03T03:59:07.670Z,3.57
2023-02-03T04:01:36.748Z,3.90
2023-02-03T04:04:06.405Z,3.77
2023-02-03T04:06:35.099Z,2.63
2023-02-03T04:09:03.477Z,2.97
2023-02-03T04:11:49.772Z,3.10
2023-02-03T04:14:18.716Z,2.87
2023-02-03T04:16:46.696Z,4.07
2023-02-03T04:19:14.478Z,3.37
2023-02-03T04:21:42.705Z,3.03
2023-02-03T04:24:12.013Z,3.57
2023-02-03T04:26:40.555Z,4.03
2023-02-03T04:29:08.835Z,3.50
2023-02-03T04:31:38.695Z,4.07
2023-02-03T04:36:34.021Z,3.52
2023-02-03T04:39:02.568Z,4.50
2023-02-03T04:41:31.047Z,3.97
2023-02-03T04:43:59.727Z,3.77
2023-02-03T04:46:28.628Z,3.53
2023-02-03T04:48:56.890Z,3.73
2023-02-03T04:51:24.860Z,3.57
2023-02-03T04:53:53.301Z,4.40
2023-02-03T04:56:21.853Z,3.40
2023-02-03T04:58:50.192Z,4.33
2023-02-03T05:01:18.130Z,4.97
2023-02-03T05:03:46.361Z,5.17
2023-02-03T05:06:14.818Z,4.03
2023-02-03T05:08:42.794Z,3.70
2023-02-03T05:11:11.203Z,3.77
2023-02-03T05:13:39.683Z,4.07
2023-02-03T05:16:08.228Z,5.30
2023-02-03T05:18:36.513Z,4.03
2023-02-03T05:21:05.209Z,4.20
2023-02-03T05:23:36.496Z,4.23
2023-02-03T05:26:03.909Z,4.13
2023-02-03T05:28:32.448Z,4.97
2023-02-03T05:31:00.929Z,4.17
2023-02-03T05:33:29.546Z,4.43
2023-02-03T05:35:58.055Z,4.13
2023-02-03T05:38:26.755Z,4.13
2023-02-03T05:41:13.633Z,5.00
2023-02-03T05:43:44.871Z,6.13
2023-02-03T05:46:13.439Z,4.43
2023-02-03T05:48:42.151Z,4.20
2023-02-03T05:51:10.614Z,4.50
2023-02-03T05:53:39.161Z,6.47
2023-02-03T05:56:07.438Z,5.87
2023-02-03T05:58:36.214Z,4.90
2023-02-03T06:01:05.083Z,4.97
2023-02-03T06:03:33.533Z,4.73
2023-02-03T06:06:01.709Z,6.30
2023-02-03T06:08:29.596Z,3.97
2023-02-03T06:11:01.303Z,7.47
2023-02-03T06:13:29.673Z,3.70
2023-02-03T06:15:58.417Z,3.53
2023-02-03T06:18:27.590Z,6.60
2023-02-03T06:20:56.490Z,4.87
2023-02-03T06:23:24.593Z,2.63
2023-02-03T06:25:53.159Z,5.47
2023-02-03T06:28:22.452Z,4.90
2023-02-03T06:30:53.833Z,4.17
2023-02-03T06:33:22.772Z,4.80
2023-02-03T06:35:50.983Z,4.60
2023-02-03T06:38:18.963Z,4.27
2023-02-03T06:40:50.688Z,8.47
2023-02-03T06:43:18.677Z,4.63
2023-02-03T06:45:50.524Z,3.40
2023-02-03T06:48:18.599Z,3.70
2023-02-03T06:50:48.712Z,4.07
2023-02-03T06:53:17.424Z,4.13
2023-02-03T06:55:46.285Z,4.53
2023-02-03T06:58:14.373Z,4.37
2023-02-03T07:00:42.161Z,4.20
2023-02-03T07:03:10.857Z,4.00
2023-02-03T07:05:41.015Z,4.40
2023-02-03T07:08:09.628Z,5.77
2023-02-03T07:10:38.227Z,4.53
2023-02-03T07:13:07.950Z,3.80
2023-02-03T07:15:36.673Z,3.90
2023-02-03T07:18:05.306Z,3.83
2023-02-03T07:20:33.999Z,4.13
2023-02-03T07:23:02.023Z,4.43
2023-02-03T07:25:29.881Z,4.53
2023-02-03T07:27:58.414Z,5.40
2023-02-03T07:30:27.610Z,4.77
2023-02-03T07:32:56.499Z,4.53
2023-02-03T07:35:25.929Z,5.67
2023-02-03T07:37:54.266Z,3.90
2023-02-03T07:40:22.871Z,4.30
2023-02-03T07:42:51.377Z,4.90
2023-02-03T07:45:20.143Z,4.73
2023-02-03T07:47:48.328Z,5.13
2023-02-03T07:50:16.168Z,4.53
2023-02-03T07:52:44.660Z,3.50
2023-02-03T07:55:12.554Z,3.67
2023-02-03T07:57:42.662Z,4.03
2023-02-03T08:00:12.318Z,3.20
2023-02-03T08:02:41.240Z,5.83
2023-02-03T08:05:09.356Z,4.47
2023-02-03T08:07:38.072Z,3.53
2023-02-03T08:10:06.796Z,3.40
2023-02-03T08:12:34.734Z,3.87
2023-02-03T08:15:02.740Z,3.87
2023-02-03T08:17:30.909Z,3.53
2023-02-03T08:19:59.404Z,4.07
2023-02-03T08:22:28.142Z,3.10
2023-02-03T08:24:56.818Z,2.90
2023-02-03T08:27:25.628Z,3.60
2023-02-03T08:29:54.039Z,3.17
2023-02-03T08:32:23.618Z,4.10
2023-02-03T08:34:52.837Z,3.20
2023-02-03T08:37:22.954Z,2.77
2023-02-03T08:39:51.329Z,7.87
2023-02-03T08:42:20.134Z,3.23
2023-02-03T08:44:49.172Z,3.33
2023-02-03T08:47:18.118Z,4.20
2023-02-03T08:49:46.919Z,4.57
2023-02-03T08:52:17.410Z,2.73
2023-02-03T08:54:45.197Z,3.33
2023-02-03T08:57:13.904Z,2.60
2023-02-03T08:59:44.000Z,2.60
2023-02-03T09:02:14.578Z,5.33
2023-02-03T09:04:43.117Z,2.53
2023-02-03T09:07:11.856Z,4.13
2023-02-03T09:09:40.894Z,3.67
2023-02-03T09:12:10.070Z,3.47
2023-02-03T09:14:38.326Z,4.20
2023-02-03T09:17:08.763Z,5.13
2023-02-03T09:19:36.975Z,7.27
2023-02-03T09:22:05.967Z,2.83
2023-02-03T09:24:35.787Z,5.23
2023-02-03T09:27:04.429Z,4.30
2023-02-03T09:29:32.579Z,4.57
2023-02-03T09:32:02.462Z,2.93
2023-02-03T09:34:30.887Z,3.20
2023-02-03T09:36:58.827Z,3.10
2023-02-03T09:39:26.774Z,2.73
2023-02-03T09:42:01.116Z,2.73
2023-02-03T09:44:31.002Z,2.93
2023-02-03T09:47:01.126Z,5.00
2023-02-03T09:49:30.870Z,3.47
2023-02-03T09:52:04.166Z,2.77
2023-02-03T09:54:51.096Z,3.60
2023-02-03T09:57:27.157Z,6.57
2023-02-03T09:59:57.116Z,3.73
2023-02-03T10:02:27.493Z,4.00
2023-02-03T10:05:03.499Z,2.67
2023-02-03T10:09:59.880Z,3.83
2023-02-03T10:12:35.915Z,1.83
2023-02-03T10:15:08.307Z,4.90
2023-02-03T10:17:40.851Z,3.97
2023-02-03T10:20:21.330Z,4.77
2023-02-03T10:23:01.984Z,3.33
2023-02-03T10:25:37.488Z,2.33
2023-02-03T10:28:07.574Z,2.43
2023-02-03T10:30:39.042Z,2.20
2023-02-03T10:33:12.202Z,2.47
2023-02-03T10:35:44.915Z,3.20
2023-02-03T10:38:14.255Z,5.87
2023-02-03T10:40:42.823Z,3.13
2023-02-03T10:43:30.183Z,3.17
2023-02-03T10:45:59.598Z,3.43
2023-02-03T10:48:27.916Z,3.37
2023-02-03T10:50:56.917Z,3.57
2023-02-03T10:53:29.740Z,2.93
2023-02-03T10:56:02.337Z,3.17
2023-02-03T10:58:31.314Z,5.23
2023-02-03T11:01:01.337Z,3.07
2023-02-03T11:03:30.249Z,2.80
2023-02-03T11:06:05.790Z,2.73
2023-02-03T11:08:34.303Z,3.20
2023-02-03T11:11:04.451Z,2.87
2023-02-03T11:13:32.753Z,3.17
2023-02-03T11:16:17.743Z,4.30
2023-02-03T11:19:03.510Z,4.03
2023-02-03T11:21:36.319Z,4.20
2023-02-03T11:24:09.243Z,3.37
2023-02-03T11:26:39.184Z,4.77
2023-02-03T11:29:08.801Z,2.97
2023-02-03T11:31:38.199Z,3.20
2023-02-03T11:34:08.170Z,3.77
2023-02-03T11:36:36.727Z,3.73
2023-02-03T11:39:12.530Z,5.07
2023-02-03T11:41:41.622Z,4.20
2023-02-03T11:44:20.602Z,4.47
2023-02-03T11:46:50.673Z,3.77
2023-02-03T11:49:26.760Z,3.20
2023-02-03T11:51:56.878Z,3.07
2023-02-03T11:54:42.118Z,3.20
2023-02-03T11:57:25.246Z,2.87
2023-02-03T12:00:04.092Z,2.37
2023-02-03T12:02:43.163Z,3.53
2023-02-03T12:05:13.366Z,3.97
2023-02-03T12:07:43.369Z,2.10
2023-02-03T12:10:18.420Z,3.80
2023-02-03T12:12:51.244Z,2.93
2023-02-03T12:15:37.793Z,2.60
2023-02-03T12:18:26.133Z,9.97
2023-02-03T12:21:01.905Z,4.07
2023-02-03T12:23:40.914Z,2.87
2023-02-03T12:26:19.553Z,4.33
2023-02-03T12:28:52.847Z,3.07
2023-02-03T12:31:27.037Z,5.20
2023-02-03T12:33:56.619Z,4.70
2023-02-03T12:36:32.247Z,2.83
2023-02-03T12:39:11.349Z,5.20
2023-02-03T12:41:41.299Z,2.53
2023-02-03T12:44:14.332Z,2.80
2023-02-03T12:46:46.990Z,3.63
2023-02-03T12:49:17.357Z,4.57
2023-02-03T12:51:53.354Z,2.70
2023-02-03T12:54:26.500Z,3.37
2023-02-03T12:56:56.418Z,3.97
2023-02-03T12:59:26.478Z,3.27
2023-02-03T13:01:58.899Z,3.10
2023-02-03T13:04:31.695Z,3.27
2023-02-03T13:07:01.490Z,4.53
2023-02-03T13:09:30.925Z,4.87
2023-02-03T13:12:00.977Z,7.30
2023-02-03T13:14:40.188Z,2.97
2023-02-03T13:17:10.182Z,2.00
2023-02-03T13:19:51.788Z,3.93
2023-02-03T13:22:22.318Z,2.33
2023-02-03T13:25:01.627Z,2.43
2023-02-03T13:27:44.123Z,3.13
2023-02-03T13:30:26.547Z,3.77
2023-02-03T13:32:59.332Z,3.80
2023-02-03T13:35:34.383Z,3.33
2023-02-03T13:38:00.922Z,2.90
2023-02-03T13:40:30.820Z,4.80
2023-02-03T13:43:01.306Z,2.93
2023-02-03T13:45:37.169Z,2.87
2023-02-03T13:48:12.955Z,3.90
2023-02-03T13:50:41.774Z,2.57
2023-02-03T13:53:23.871Z,5.10
2023-02-03T13:55:59.189Z,2.80
2023-02-03T13:58:31.963Z,3.03
2023-02-03T14:01:02.730Z,3.17
2023-02-03T14:03:32.675Z,4.10
2023-02-03T14:06:02.109Z,6.70
2023-02-03T14:08:32.102Z,4.03
2023-02-03T14:11:18.332Z,4.30
2023-02-03T14:13:46.273Z,5.10
2023-02-03T14:16:15.611Z,6.40
2023-02-03T14:18:47.358Z,4.87
2023-02-03T14:21:17.265Z,4.30
2023-02-03T14:23:47.912Z,5.43
2023-02-03T14:26:20.917Z,5.63
2023-02-03T14:28:52.083Z,5.77
2023-02-03T14:31:22.000Z,3.43
2023-02-03T14:33:52.512Z,3.27
2023-02-03T14:36:39.229Z,7.33
2023-02-03T14:39:21.813Z,5.50
2023-02-03T14:41:51.872Z,3.77
2023-02-03T14:44:27.891Z,3.43
2023-02-03T14:49:24.228Z,3.12
2023-02-03T14:52:00.239Z,5.77
2023-02-03T14:54:38.958Z,4.80
2023-02-03T14:57:17.441Z,4.50
2023-02-03T14:59:50.349Z,5.77
2023-02-03T15:02:20.637Z,5.73
2023-02-03T15:04:51.193Z,6.40
2023-02-03T15:07:39.393Z,4.23
2023-02-03T15:10:12.058Z,6.37
2023-02-03T15:12:42.213Z,5.93
2023-02-03T15:15:15.127Z,8.47
2023-02-03T15:17:43.643Z,6.80
2023-02-03T15:20:28.551Z,6.30
2023-02-03T15:22:57.024Z,7.43
2023-02-03T15:25:26.751Z,7.53
2023-02-03T15:27:56.098Z,8.03
2023-02-03T15:30:29.292Z,7.70
2023-02-03T15:33:05.233Z,7.73
2023-02-03T15:35:35.576Z,7.77
2023-02-03T15:38:05.797Z,11.07
2023-02-03T15:40:35.742Z,8.77
2023-02-03T15:43:11.707Z,6.37
2023-02-03T15:48:19.804Z,6.58
2023-02-03T15:50:53.131Z,9.20
2023-02-03T15:53:22.831Z,9.90
2023-02-03T15:55:53.270Z,9.57
2023-02-03T15:58:23.331Z,8.80
2023-02-03T16:01:04.967Z,10.70
2023-02-03T16:03:40.925Z,7.00
2023-02-03T16:06:10.606Z,8.53
2023-02-03T16:08:40.818Z,6.73
2023-02-03T16:11:27.726Z,5.67
2023-02-03T16:13:57.134Z,6.33
2023-02-03T16:16:32.934Z,10.10
2023-02-03T16:19:04.595Z,8.77
2023-02-03T16:21:35.365Z,11.30
2023-02-03T16:24:05.594Z,7.77
2023-02-03T16:26:35.758Z,6.77
2023-02-03T16:29:29.374Z,9.43
2023-02-03T16:32:16.351Z,8.57
2023-02-03T16:35:02.844Z,8.90
2023-02-03T16:37:50.894Z,5.20
2023-02-03T16:40:38.773Z,6.00
2023-02-03T16:43:26.776Z,12.77
2023-02-03T16:46:14.279Z,5.67
2023-02-03T16:49:01.030Z,6.20
2023-02-03T16:51:31.133Z,7.50
2023-02-03T16:53:59.695Z,8.13
2023-02-03T16:56:27.990Z,9.17
2023-02-03T16:58:56.575Z,10.67
2023-02-03T17:01:25.002Z,9.40
2023-02-03T17:03:52.927Z,7.27
2023-02-03T17:06:21.401Z,8.00
2023-02-03T17:08:49.935Z,11.93
2023-02-03T17:11:20.008Z,15.17
2023-02-03T17:13:49.054Z,13.67
2023-02-03T17:16:18.457Z,18.43
2023-02-03T17:18:47.521Z,14.93
2023-02-03T17:21:17.701Z,16.30
2023-02-03T17:23:46.465Z,18.63
2023-02-03T17:26:14.717Z,14.83
2023-02-03T17:28:45.032Z,12.43
2023-02-03T17:31:15.226Z,15.27
2023-02-03T17:33:43.912Z,14.33
2023-02-03T17:36:13.841Z,17.60
2023-02-03T17:55:20.518Z,13.70
2023-02-03T17:57:48.981Z,13.97
2023-02-03T18:00:17.876Z,16.97
2023-02-03T18:02:47.898Z,22.43
2023-02-03T18:07:43.268Z,19.52
2023-02-03T18:10:12.515Z,17.03
2023-02-03T18:12:41.296Z,16.30
2023-02-03T18:15:09.569Z,14.43
2023-02-03T18:17:38.264Z,13.03
2023-02-03T18:20:07.217Z,11.10
2023-02-03T18:22:35.215Z,9.70
2023-02-03T18:25:02.995Z,11.83
2023-02-03T18:27:31.360Z,20.27
2023-02-03T18:29:59.850Z,19.53
2023-02-03T18:32:28.628Z,17.90
2023-02-03T18:34:57.681Z,22.33
2023-02-03T18:37:26.192Z,28.43
2023-02-03T18:39:54.713Z,26.10
2023-02-03T18:42:22.666Z,31.43
2023-02-03T18:44:51.470Z,42.17
2023-02-03T18:47:20.046Z,37.17
2023-02-03T18:49:48.582Z,39.43
2023-02-03T18:52:17.155Z,36.67
2023-02-03T18:54:45.897Z,63.97
2023-02-03T18:57:15.452Z,45.57
2023-02-03T18:59:44.672Z,37.80
2023-02-03T19:02:13.212Z,41.27
2023-02-03T19:04:41.764Z,49.43
2023-02-03T19:07:10.532Z,50.53
2023-02-03T19:09:39.943Z,55.63
2023-02-03T19:12:10.589Z,41.13
2023-02-03T19:14:38.578Z,66.77
2023-02-03T19:17:07.152Z,51.63
2023-02-03T19:19:36.468Z,70.30
2023-02-03T19:22:05.246Z,63.43
2023-02-03T19:24:33.778Z,61.27
2023-02-03T19:27:01.715Z,70.63
2023-02-03T19:29:30.272Z,53.90
2023-02-03T19:31:58.921Z,40.40
2023-02-03T19:34:28.426Z,55.47
2023-02-03T19:36:57.071Z,35.97
2023-02-03T19:39:25.648Z,53.17
2023-02-03T19:41:54.112Z,40.53
2023-02-03T19:44:21.952Z,75.20
2023-02-03T19:46:50.465Z,42.83
2023-02-03T19:49:19.267Z,59.23
2023-02-03T19:51:47.646Z,28.93
2023-02-03T19:54:17.004Z,76.40
2023-02-03T19:56:45.523Z,29.63
2023-02-03T19:59:14.056Z,57.50
2023-02-03T20:01:42.872Z,39.13
2023-02-03T20:04:11.868Z,45.40
2023-02-03T20:06:40.554Z,49.37
2023-02-03T20:09:09.264Z,102.77
2023-02-03T20:11:38.360Z,33.57
2023-02-03T20:14:06.790Z,27.70
2023-02-03T20:16:35.574Z,58.50
2023-02-03T20:19:04.246Z,36.80
2023-02-03T20:21:32.904Z,40.23
2023-02-03T20:24:01.476Z,55.33
2023-02-03T20:26:29.856Z,58.03
2023-02-03T20:28:58.233Z,50.27
2023-02-03T20:31:27.069Z,35.77
2023-02-03T20:33:55.123Z,28.37
2023-02-03T20:36:23.800Z,42.20
2023-02-03T20:38:51.754Z,26.17
2023-02-03T20:41:20.539Z,27.40
2023-02-03T20:43:49.555Z,22.03
2023-02-03T20:46:19.572Z,23.23
2023-02-03T20:48:47.638Z,28.03
2023-02-03T20:51:17.278Z,24.83
2023-02-03T20:53:45.293Z,17.50
2023-02-03T20:56:15.435Z,13.77
2023-02-03T20:58:44.778Z,21.60
2023-02-03T21:01:20.803Z,21.80
2023-02-03T21:06:34.903Z,21.17
2023-02-03T21:09:05.194Z,16.70
2023-02-03T21:11:33.148Z,21.33
2023-02-03T21:14:03.686Z,24.00
2023-02-03T21:16:34.436Z,23.93
2023-02-03T21:19:04.444Z,22.30
2023-02-03T21:21:36.463Z,21.47
2023-02-03T21:24:22.870Z,14.03
2023-02-03T21:26:52.266Z,17.70
2023-02-03T21:29:26.122Z,18.67
2023-02-03T21:31:56.030Z,16.40
2023-02-03T21:36:50.885Z,15.53
2023-02-03T21:39:32.753Z,17.93
2023-02-03T21:42:05.933Z,14.27
2023-02-03T21:44:38.528Z,17.73
2023-02-03T21:47:08.442Z,15.77
2023-02-03T21:49:37.639Z,11.43
2023-02-03T21:52:07.150Z,13.10
2023-02-03T21:54:36.961Z,13.37
2023-02-03T21:57:06.125Z,17.17
2023-02-03T21:59:39.335Z,14.43
2023-02-03T22:02:25.899Z,18.00
2023-02-03T22:04:54.258Z,20.00
2023-02-03T22:07:23.176Z,17.57
2023-02-03T22:09:51.986Z,22.37
2023-02-03T22:12:20.686Z,24.40
2023-02-03T22:14:49.267Z,26.90
2023-02-03T22:17:19.230Z,29.57
2023-02-03T22:22:14.302Z,25.37
2023-02-03T22:24:42.881Z,23.07
2023-02-03T22:27:11.635Z,13.73
2023-02-03T22:29:40.150Z,10.97
2023-02-03T22:32:08.462Z,9.57
2023-02-03T22:34:36.401Z,10.03
2023-02-03T22:37:04.286Z,6.93
2023-02-03T22:39:32.757Z,9.80
2023-02-03T22:42:01.435Z,7.83
2023-02-03T22:44:30.533Z,7.87
2023-02-03T22:46:58.916Z,7.50
2023-02-03T22:49:27.481Z,7.53
2023-02-03T22:51:55.317Z,6.70
2023-02-03T22:54:23.723Z,7.67
2023-02-03T22:56:53.636Z,7.17
2023-02-03T23:01:48.369Z,4.80
2023-02-03T23:04:16.138Z,6.83
2023-02-03T23:06:44.439Z,4.33
2023-02-03T23:09:12.485Z,5.60
2023-02-03T23:11:41.056Z,5.90
2023-02-03T23:14:10.418Z,6.70
2023-02-03T23:16:39.123Z,6.27
2023-02-03T23:19:07.524Z,9.27
2023-02-03T23:21:35.243Z,7.10
2023-02-03T23:24:03.577Z,6.13
2023-02-03T23:26:32.101Z,9.13
2023-02-03T23:29:00.040Z,6.30
2023-02-03T23:31:28.566Z,6.80
2023-02-03T23:34:14.326Z,8.87
2023-02-03T23:36:42.733Z,6.30
2023-02-03T23:39:10.949Z,6.60
2023-02-03T23:41:39.433Z,6.60
2023-02-03T23:44:07.969Z,6.80
2023-02-03T23:46:35.808Z,5.90
2023-02-03T23:49:04.251Z,5.33
2023-02-03T23:51:32.843Z,7.67
2023-02-03T23:54:01.244Z,6.27
2023-02-03T23:56:30.006Z,6.07
2023-02-03T23:58:58.580Z,8.13
